createdAt,value
2022-12-19T00:00:14.744Z,-1.80
2022-12-19T00:01:19.543Z,-1.65
2022-12-19T00:02:25.429Z,-1.63
2022-12-19T00:03:27.282Z,-1.37
2022-12-19T00:04:30.285Z,-1.18
2022-12-19T00:05:35.831Z,-1.23
2022-12-19T00:06:41.342Z,-1.26
2022-12-19T00:07:48.410Z,-1.10
2022-12-19T00:08:52.648Z,-1.01
2022-12-19T00:09:54.223Z,-1.03
2022-12-19T00:10:59.448Z,-1.13
2022-12-19T00:12:02.449Z,-1.11
2022-12-19T00:13:05.040Z,-1.17
2022-12-19T00:14:07.683Z,-1.16
2022-12-19T00:15:10.770Z,-1.02
2022-12-19T00:16:14.337Z,-0.86
2022-12-19T00:17:18.887Z,-1.48
2022-12-19T00:18:20.611Z,-1.51
2022-12-19T00:19:24.749Z,-1.79
2022-12-19T00:20:26.383Z,-1.51
2022-12-19T00:21:30.740Z,-1.22
2022-12-19T00:22:32.915Z,-1.03
2022-12-19T00:23:36.135Z,-0.95
2022-12-19T00:24:37.954Z,-0.88
2022-12-19T00:25:40.527Z,-0.75
2022-12-19T00:26:43.153Z,-0.77
2022-12-19T00:27:47.233Z,-0.79
2022-12-19T00:28:50.860Z,-1.12
2022-12-19T00:29:53.428Z,-1.00
2022-12-19T00:30:55.630Z,-0.93
2022-12-19T00:31:59.203Z,-1.25
2022-12-19T00:33:02.616Z,-1.02
2022-12-19T00:34:05.477Z,-0.97
2022-12-19T00:35:07.504Z,-1.25
2022-12-19T00:36:14.457Z,-1.11
2022-12-19T00:37:18.512Z,-0.94
2022-12-19T00:38:21.104Z,-0.87
2022-12-19T00:39:22.924Z,-0.80
2022-12-19T00:40:25.456Z,-0.70
2022-12-19T00:41:30.415Z,-0.65
2022-12-19T00:42:33.121Z,-0.79
2022-12-19T00:43:36.519Z,-1.74
2022-12-19T00:44:39.128Z,-1.64
2022-12-19T00:45:40.833Z,-1.48
2022-12-19T00:46:51.035Z,-1.22
2022-12-19T00:47:54.843Z,-1.06
2022-12-19T00:48:57.405Z,-0.87
2022-12-19T00:49:59.016Z,-0.75
2022-12-19T00:51:02.219Z,-0.72
2022-12-19T00:52:04.364Z,-0.82
2022-12-19T00:53:06.908Z,-0.67
2022-12-19T00:54:09.890Z,-0.62
2022-12-19T00:55:18.783Z,-0.58
2022-12-19T00:56:22.658Z,-0.49
2022-12-19T00:57:25.224Z,-0.44
2022-12-19T00:58:27.131Z,-0.45
2022-12-19T00:59:31.251Z,-0.58
2022-12-19T01:00:33.143Z,-1.03
2022-12-19T01:01:38.844Z,-0.88
2022-12-19T01:02:40.723Z,-0.78
2022-12-19T01:03:58.011Z,-0.65
2022-12-19T01:05:06.005Z,-0.71
2022-12-19T01:06:09.234Z,-0.68
2022-12-19T01:07:11.057Z,-0.58
2022-12-19T01:08:13.694Z,-0.51
2022-12-19T01:09:15.734Z,-0.48
2022-12-19T01:10:18.383Z,-0.66
2022-12-19T01:11:40.853Z,-0.66
2022-12-19T01:12:48.380Z,-0.46
2022-12-19T01:13:51.034Z,-0.40
2022-12-19T01:15:02.836Z,-0.41
2022-12-19T01:16:10.210Z,-0.36
2022-12-19T01:17:14.769Z,-0.49
2022-12-19T01:18:17.688Z,-0.38
2022-12-19T01:19:19.632Z,-0.75
2022-12-19T01:20:29.323Z,-0.73
2022-12-19T01:21:31.506Z,-0.64
2022-12-19T01:22:34.111Z,-0.65
2022-12-19T01:23:36.686Z,-0.94
2022-12-19T01:24:39.571Z,-1.08
2022-12-19T01:25:43.159Z,-1.03
2022-12-19T01:26:47.553Z,-0.87
2022-12-19T01:27:50.170Z,-0.91
2022-12-19T01:28:51.805Z,-0.95
2022-12-19T01:29:56.024Z,-0.92
2022-12-19T01:30:57.650Z,-1.08
2022-12-19T01:32:00.422Z,-1.56
2022-12-19T01:33:02.137Z,-1.81
2022-12-19T01:34:04.945Z,-2.16
2022-12-19T01:35:09.204Z,-1.99
2022-12-19T01:36:24.411Z,-1.53
2022-12-19T01:37:26.079Z,-1.26
2022-12-19T01:38:28.624Z,-1.23
2022-12-19T01:39:30.415Z,-1.07
2022-12-19T01:40:35.885Z,-1.10
2022-12-19T01:41:37.780Z,-1.02
2022-12-19T01:42:40.779Z,-0.98
2022-12-19T01:43:57.036Z,-0.89
2022-12-19T01:45:20.948Z,-0.72
2022-12-19T01:46:28.440Z,-0.54
2022-12-19T01:47:32.866Z,-0.62
2022-12-19T01:48:39.594Z,-0.52
2022-12-19T01:49:41.393Z,-0.35
2022-12-19T01:51:00.668Z,-0.63
2022-12-19T01:52:10.312Z,-0.44
2022-12-19T01:53:15.958Z,-0.45
2022-12-19T01:54:23.526Z,-0.28
2022-12-19T01:55:25.682Z,-0.19
2022-12-19T01:56:32.700Z,-0.16
2022-12-19T01:57:34.881Z,-0.05
2022-12-19T01:58:46.394Z,0.15
2022-12-19T01:59:51.583Z,0.24
2022-12-19T02:00:55.873Z,0.22
2022-12-19T02:02:03.219Z,0.22
2022-12-19T02:03:12.418Z,0.34
2022-12-19T02:04:15.059Z,0.43
2022-12-19T02:05:17.721Z,0.48
2022-12-19T02:06:19.858Z,0.45
2022-12-19T02:07:24.639Z,0.23
2022-12-19T02:08:27.605Z,0.09
2022-12-19T02:09:32.421Z,-0.30
2022-12-19T02:10:34.354Z,-0.58
2022-12-19T02:11:37.124Z,-0.26
2022-12-19T02:12:43.105Z,-0.05
2022-12-19T02:13:48.015Z,0.12
2022-12-19T02:14:49.924Z,0.28
2022-12-19T02:16:02.004Z,0.39
2022-12-19T02:17:11.500Z,0.40
2022-12-19T02:18:22.447Z,0.45
2022-12-19T02:19:48.363Z,0.42
2022-12-19T02:21:14.376Z,0.50
2022-12-19T02:22:26.826Z,0.55
2022-12-19T02:23:59.536Z,0.49
2022-12-19T02:25:33.770Z,0.20
2022-12-19T02:26:52.479Z,0.25
2022-12-19T02:28:14.566Z,0.19
2022-12-19T02:29:34.448Z,0.21
2022-12-19T02:30:46.478Z,0.34
2022-12-19T02:31:52.377Z,-0.02
2022-12-19T02:33:02.862Z,0.02
2022-12-19T02:34:14.303Z,-0.02
2022-12-19T02:35:25.539Z,-0.12
2022-12-19T02:36:33.995Z,-0.05
2022-12-19T02:37:49.628Z,-0.30
2022-12-19T02:38:59.231Z,-0.50
2022-12-19T02:40:06.486Z,-0.65
2022-12-19T02:41:13.988Z,-0.41
2022-12-19T02:42:28.428Z,-0.54
2022-12-19T02:43:40.361Z,-0.56
2022-12-19T02:44:46.111Z,-0.39
2022-12-19T02:45:52.198Z,-0.10
2022-12-19T02:46:54.536Z,0.10
2022-12-19T02:47:58.024Z,0.26
2022-12-19T02:49:01.398Z,0.30
2022-12-19T02:50:05.177Z,0.37
2022-12-19T02:51:06.818Z,0.32
2022-12-19T02:52:11.059Z,0.33
2022-12-19T02:53:15.025Z,0.20
2022-12-19T02:54:17.999Z,0.20
2022-12-19T02:55:23.776Z,0.36
2022-12-19T02:56:41.188Z,0.41
2022-12-19T02:57:59.636Z,0.46
2022-12-19T02:59:21.621Z,0.60
2022-12-19T03:00:25.560Z,0.32
2022-12-19T03:01:42.321Z,0.40
2022-12-19T03:03:00.337Z,0.38
2022-12-19T03:04:17.185Z,0.45
2022-12-19T03:05:26.460Z,0.42
2022-12-19T03:06:36.631Z,0.43
2022-12-19T03:07:46.245Z,0.35
2022-12-19T03:08:56.506Z,0.44
2022-12-19T03:10:07.853Z,0.23
2022-12-19T03:11:13.342Z,0.34
2022-12-19T03:12:26.731Z,0.47
2022-12-19T03:13:33.183Z,0.54
2022-12-19T03:14:38.970Z,0.66
2022-12-19T03:15:42.833Z,0.56
2022-12-19T03:16:45.964Z,-0.16
2022-12-19T03:17:49.512Z,-0.12
2022-12-19T03:18:51.753Z,0.24
2022-12-19T03:19:54.364Z,0.23
2022-12-19T03:21:04.967Z,0.39
2022-12-19T03:22:10.716Z,0.47
2022-12-19T03:23:13.478Z,0.64
2022-12-19T03:24:18.520Z,0.59
2022-12-19T03:25:22.474Z,0.12
2022-12-19T03:26:29.636Z,0.12
2022-12-19T03:27:36.334Z,0.01
2022-12-19T03:28:44.223Z,-0.33
2022-12-19T03:29:52.171Z,-0.33
2022-12-19T03:30:56.267Z,-0.33
2022-12-19T03:32:03.152Z,-0.05
2022-12-19T03:33:06.049Z,0.21
2022-12-19T03:34:12.348Z,0.50
2022-12-19T03:35:19.552Z,0.57
2022-12-19T03:36:26.046Z,0.63
2022-12-19T03:37:32.801Z,0.69
2022-12-19T03:38:35.720Z,0.66
2022-12-19T03:39:41.741Z,0.78
2022-12-19T03:40:46.011Z,0.79
2022-12-19T03:42:07.904Z,0.56
2022-12-19T03:43:14.531Z,0.64
2022-12-19T03:44:19.218Z,0.74
2022-12-19T03:45:30.702Z,0.78
2022-12-19T03:46:35.512Z,0.79
2022-12-19T03:47:42.943Z,0.88
2022-12-19T03:48:46.374Z,0.98
2022-12-19T03:49:49.797Z,0.86
2022-12-19T03:50:58.004Z,0.88
2022-12-19T03:52:06.215Z,0.86
2022-12-19T03:53:19.407Z,0.98
2022-12-19T03:54:26.850Z,0.94
2022-12-19T03:55:36.430Z,0.97
2022-12-19T03:56:46.767Z,1.11
2022-12-19T03:57:58.660Z,0.97
2022-12-19T03:59:07.691Z,0.84
2022-12-19T04:00:13.406Z,0.89
2022-12-19T04:01:21.637Z,0.95
2022-12-19T04:02:27.075Z,1.17
2022-12-19T04:03:32.881Z,1.31
2022-12-19T04:04:38.155Z,1.40
2022-12-19T04:05:42.880Z,1.52
2022-12-19T04:06:45.846Z,1.58
2022-12-19T04:07:50.270Z,1.59
2022-12-19T04:08:52.223Z,1.30
2022-12-19T04:10:00.555Z,1.23
2022-12-19T04:11:09.797Z,1.40
2022-12-19T04:12:16.917Z,1.20
2022-12-19T04:13:27.760Z,1.40
2022-12-19T04:14:32.403Z,1.61
2022-12-19T04:15:58.501Z,1.82
2022-12-19T04:17:08.711Z,1.80
2022-12-19T04:18:14.681Z,1.94
2022-12-19T04:19:21.504Z,2.10
2022-12-19T04:20:28.034Z,2.08
2022-12-19T04:21:33.858Z,2.15
2022-12-19T04:22:40.975Z,2.10
2022-12-19T04:23:47.853Z,2.16
2022-12-19T04:24:58.399Z,2.22
2022-12-19T04:26:03.780Z,2.26
2022-12-19T04:27:09.481Z,2.36
2022-12-19T04:28:17.480Z,2.46
2022-12-19T04:29:22.527Z,2.46
2022-12-19T04:30:24.403Z,2.41
2022-12-19T04:31:27.265Z,2.41
2022-12-19T04:32:34.718Z,2.45
2022-12-19T04:33:37.436Z,2.51
2022-12-19T04:34:43.632Z,2.48
2022-12-19T04:35:52.243Z,2.38
2022-12-19T04:36:54.958Z,2.42
2022-12-19T04:37:59.174Z,2.31
2022-12-19T04:39:01.984Z,2.38
2022-12-19T04:40:04.351Z,2.37
2022-12-19T04:41:07.344Z,2.38
2022-12-19T04:42:09.007Z,2.43
2022-12-19T04:43:11.774Z,2.28
2022-12-19T04:44:13.456Z,2.23
2022-12-19T04:45:17.192Z,2.00
2022-12-19T04:46:19.041Z,2.08
2022-12-19T04:47:21.710Z,2.11
2022-12-19T04:48:23.407Z,2.04
2022-12-19T04:49:26.229Z,1.72
2022-12-19T04:50:29.351Z,1.46
2022-12-19T04:51:35.522Z,0.98
2022-12-19T04:52:37.239Z,0.84
2022-12-19T04:53:42.766Z,1.11
2022-12-19T04:54:46.703Z,1.36
2022-12-19T04:55:49.643Z,1.68
2022-12-19T04:56:52.729Z,1.59
2022-12-19T04:57:55.483Z,1.76
2022-12-19T04:58:57.959Z,1.98
2022-12-19T05:00:00.662Z,1.97
2022-12-19T05:01:03.077Z,2.01
2022-12-19T05:02:08.754Z,2.19
2022-12-19T05:03:10.619Z,2.27
2022-12-19T05:04:13.388Z,2.27
2022-12-19T05:05:15.482Z,2.10
2022-12-19T05:06:20.414Z,2.14
2022-12-19T05:07:22.047Z,2.25
2022-12-19T05:08:24.720Z,2.26
2022-12-19T05:09:26.489Z,2.37
2022-12-19T05:10:29.086Z,2.39
2022-12-19T05:11:31.011Z,2.45
2022-12-19T05:12:33.835Z,2.43
2022-12-19T05:13:35.922Z,2.51
2022-12-19T05:14:40.987Z,2.52
2022-12-19T05:15:42.652Z,2.58
2022-12-19T05:16:45.624Z,2.70
2022-12-19T05:17:47.279Z,2.66
2022-12-19T05:18:49.962Z,2.33
2022-12-19T05:19:51.666Z,2.39
2022-12-19T05:20:54.611Z,2.16
2022-12-19T05:21:58.783Z,2.08
2022-12-19T05:23:05.022Z,1.69
2022-12-19T05:24:08.704Z,1.71
2022-12-19T05:25:11.353Z,1.92
2022-12-19T05:26:13.316Z,2.00
2022-12-19T05:27:15.986Z,2.12
2022-12-19T05:28:18.317Z,2.32
2022-12-19T05:29:21.175Z,2.28
2022-12-19T05:30:24.428Z,2.15
2022-12-19T05:31:27.087Z,2.32
2022-12-19T05:32:30.389Z,1.96
2022-12-19T05:33:33.119Z,2.02
2022-12-19T05:34:34.900Z,2.20
2022-12-19T05:35:38.250Z,2.30
2022-12-19T05:36:40.108Z,2.41
2022-12-19T05:37:44.304Z,2.53
2022-12-19T05:38:46.088Z,2.38
2022-12-19T05:39:48.809Z,2.42
2022-12-19T05:40:50.438Z,2.44
2022-12-19T05:41:53.123Z,2.32
2022-12-19T05:42:54.769Z,2.36
2022-12-19T05:43:57.763Z,2.54
2022-12-19T05:44:59.436Z,2.57
2022-12-19T05:46:02.138Z,2.32
2022-12-19T05:47:03.976Z,2.28
2022-12-19T05:48:07.258Z,2.02
2022-12-19T05:49:13.095Z,2.11
2022-12-19T05:50:16.308Z,2.27
2022-12-19T05:51:18.124Z,2.09
2022-12-19T05:52:20.900Z,2.18
2022-12-19T05:53:26.082Z,2.04
2022-12-19T05:54:29.167Z,2.11
2022-12-19T05:55:31.673Z,2.14
2022-12-19T05:56:34.313Z,2.12
2022-12-19T05:57:36.521Z,2.21
2022-12-19T05:58:41.226Z,2.31
2022-12-19T05:59:43.070Z,1.94
2022-12-19T06:00:45.856Z,1.92
2022-12-19T06:01:47.599Z,1.88
2022-12-19T06:03:01.932Z,1.99
2022-12-19T06:04:04.282Z,1.97
2022-12-19T06:05:07.652Z,1.81
2022-12-19T06:06:11.723Z,1.86
2022-12-19T06:07:19.216Z,1.44
2022-12-19T06:08:23.893Z,1.38
2022-12-19T06:09:27.000Z,1.58
2022-12-19T06:10:28.841Z,1.40
2022-12-19T06:11:31.508Z,1.50
2022-12-19T06:12:33.273Z,1.69
2022-12-19T06:13:37.091Z,1.71
2022-12-19T06:14:38.879Z,1.77
2022-12-19T06:15:42.177Z,1.72
2022-12-19T06:16:44.110Z,1.53
2022-12-19T06:17:46.901Z,1.80
2022-12-19T06:18:48.842Z,1.98
2022-12-19T06:19:51.672Z,1.92
2022-12-19T06:20:58.317Z,2.15
2022-12-19T06:22:01.140Z,2.27
2022-12-19T06:23:02.844Z,2.15
2022-12-19T06:24:08.010Z,2.31
2022-12-19T06:25:10.052Z,2.42
2022-12-19T06:26:19.019Z,2.55
2022-12-19T06:27:20.962Z,2.28
2022-12-19T06:28:23.648Z,2.47
2022-12-19T06:29:25.474Z,2.60
2022-12-19T06:30:30.664Z,2.57
2022-12-19T06:31:33.408Z,2.36
2022-12-19T06:32:38.188Z,2.16
2022-12-19T06:33:41.850Z,2.17
2022-12-19T06:36:09.593Z,2.15
2022-12-19T06:37:12.116Z,2.26
2022-12-19T06:38:14.894Z,2.11
2022-12-19T06:39:19.009Z,1.90
2022-12-19T06:40:35.718Z,2.05
2022-12-19T06:42:07.409Z,2.29
2022-12-19T06:43:12.100Z,2.33
2022-12-19T06:44:17.179Z,2.39
2022-12-19T06:45:18.804Z,2.57
2022-12-19T06:46:24.537Z,2.61
2022-12-19T06:47:26.285Z,2.39
2022-12-19T06:48:29.383Z,2.21
2022-12-19T06:49:31.253Z,2.20
2022-12-19T06:50:35.961Z,2.38
2022-12-19T06:51:41.652Z,2.54
2022-12-19T06:52:43.451Z,2.22
2022-12-19T06:53:46.244Z,2.45
2022-12-19T06:54:50.343Z,2.30
2022-12-19T06:55:55.694Z,2.47
2022-12-19T06:56:58.492Z,2.52
2022-12-19T06:58:02.456Z,2.08
2022-12-19T06:59:05.314Z,1.86
2022-12-19T07:00:09.994Z,2.07
2022-12-19T07:01:19.076Z,1.98
2022-12-19T07:02:28.470Z,2.05
2022-12-19T07:03:37.255Z,1.76
2022-12-19T07:04:42.227Z,2.06
2022-12-19T07:05:45.245Z,2.20
2022-12-19T07:06:49.360Z,1.69
2022-12-19T07:07:52.134Z,1.72
2022-12-19T07:08:54.015Z,1.70
2022-12-19T07:09:58.125Z,1.66
2022-12-19T07:11:01.260Z,1.90
2022-12-19T07:12:04.656Z,2.12
2022-12-19T07:13:06.272Z,2.36
2022-12-19T07:14:08.990Z,2.47
2022-12-19T07:15:19.529Z,2.63
2022-12-19T07:16:21.203Z,2.63
2022-12-19T07:17:25.684Z,2.65
2022-12-19T07:18:30.343Z,2.76
2022-12-19T07:19:33.983Z,2.70
2022-12-19T07:20:43.350Z,2.39
2022-12-19T07:21:50.992Z,2.55
2022-12-19T07:22:53.921Z,2.64
2022-12-19T07:23:56.721Z,2.69
2022-12-19T07:25:01.237Z,2.81
2022-12-19T07:26:04.830Z,2.57
2022-12-19T07:27:09.068Z,2.69
2022-12-19T07:28:11.940Z,2.55
2022-12-19T07:29:15.937Z,2.51
2022-12-19T07:30:18.638Z,2.15
2022-12-19T07:31:20.315Z,2.11
2022-12-19T07:32:23.300Z,1.87
2022-12-19T07:33:25.074Z,1.73
2022-12-19T07:34:27.754Z,1.42
2022-12-19T07:35:30.879Z,1.47
2022-12-19T07:36:33.581Z,1.49
2022-12-19T07:37:36.889Z,1.64
2022-12-19T07:38:39.502Z,1.75
2022-12-19T07:39:42.322Z,1.90
2022-12-19T07:40:46.621Z,1.97
2022-12-19T07:41:48.310Z,2.04
2022-12-19T07:42:51.071Z,1.96
2022-12-19T07:43:53.934Z,2.00
2022-12-19T07:44:55.649Z,1.81
2022-12-19T07:45:58.369Z,1.72
2022-12-19T07:47:01.325Z,1.61
2022-12-19T07:48:04.201Z,1.57
2022-12-19T07:49:07.180Z,1.66
2022-12-19T07:50:09.729Z,1.54
2022-12-19T07:51:12.639Z,1.47
2022-12-19T07:52:15.574Z,1.57
2022-12-19T07:53:17.338Z,1.42
2022-12-19T07:54:21.446Z,1.48
2022-12-19T07:55:23.156Z,1.36
2022-12-19T07:56:27.621Z,1.39
2022-12-19T07:57:29.427Z,1.66
2022-12-19T07:58:32.168Z,1.39
2022-12-19T07:59:38.797Z,1.54
2022-12-19T08:00:42.259Z,1.70
2022-12-19T08:01:44.535Z,1.76
2022-12-19T08:02:48.088Z,1.75
2022-12-19T08:03:51.191Z,1.88
2022-12-19T08:04:54.119Z,1.93
2022-12-19T08:06:00.419Z,1.84
2022-12-19T08:07:03.480Z,1.79
2022-12-19T08:08:05.472Z,1.65
2022-12-19T08:09:08.146Z,1.68
2022-12-19T08:10:12.646Z,1.89
2022-12-19T08:11:17.280Z,2.12
2022-12-19T08:12:21.245Z,1.88
2022-12-19T08:13:22.991Z,1.74
2022-12-19T08:14:25.690Z,1.67
2022-12-19T08:15:28.296Z,1.66
2022-12-19T08:16:31.147Z,1.80
2022-12-19T08:17:33.798Z,1.78
2022-12-19T08:18:36.485Z,2.07
2022-12-19T08:19:38.178Z,1.87
2022-12-19T08:20:40.840Z,1.90
2022-12-19T08:21:43.469Z,2.08
2022-12-19T08:22:46.397Z,2.22
2022-12-19T08:23:48.037Z,2.23
2022-12-19T08:24:50.722Z,2.34
2022-12-19T08:26:00.277Z,2.06
2022-12-19T08:27:03.036Z,1.70
2022-12-19T08:28:07.367Z,1.99
2022-12-19T08:29:09.313Z,1.99
2022-12-19T08:30:14.091Z,2.20
2022-12-19T08:31:18.767Z,2.34
2022-12-19T08:32:22.006Z,1.93
2022-12-19T08:33:24.717Z,2.12
2022-12-19T08:34:27.027Z,1.96
2022-12-19T08:35:29.778Z,1.55
2022-12-19T08:36:32.805Z,1.51
2022-12-19T08:37:35.447Z,1.85
2022-12-19T08:38:37.344Z,1.49
2022-12-19T08:39:41.110Z,1.75
2022-12-19T08:40:47.374Z,1.95
2022-12-19T08:41:49.289Z,2.19
2022-12-19T08:42:51.963Z,2.13
2022-12-19T08:43:54.969Z,2.38
2022-12-19T08:44:57.728Z,2.29
2022-12-19T08:46:00.917Z,2.40
2022-12-19T08:47:03.775Z,2.28
2022-12-19T08:48:07.722Z,1.86
2022-12-19T08:49:10.334Z,1.89
2022-12-19T08:50:14.271Z,2.24
2022-12-19T08:51:18.307Z,2.51
2022-12-19T08:52:21.056Z,2.41
2022-12-19T08:53:26.443Z,2.01
2022-12-19T08:54:29.652Z,1.99
2022-12-19T08:55:32.319Z,1.86
2022-12-19T08:56:33.933Z,1.99
2022-12-19T08:57:36.622Z,1.98
2022-12-19T08:58:39.534Z,2.04
2022-12-19T08:59:43.490Z,2.24
2022-12-19T09:00:52.095Z,2.08
2022-12-19T09:01:57.562Z,1.90
2022-12-19T09:03:00.625Z,1.65
2022-12-19T09:05:09.259Z,1.73
2022-12-19T09:06:01.831Z,1.91
2022-12-19T09:06:48.647Z,1.76
2022-12-19T09:07:51.207Z,1.98
2022-12-19T09:08:53.838Z,2.19
2022-12-19T09:10:03.156Z,2.17
2022-12-19T09:11:08.174Z,2.14
2022-12-19T09:12:10.891Z,2.31
2022-12-19T09:13:13.465Z,2.19
2022-12-19T09:14:20.852Z,2.25
2022-12-19T09:15:25.724Z,2.18
2022-12-19T09:16:28.652Z,2.31
2022-12-19T09:17:31.249Z,2.13
2022-12-19T09:18:34.873Z,1.90
2022-12-19T09:19:37.414Z,1.95
2022-12-19T09:20:39.773Z,1.88
2022-12-19T09:21:42.333Z,1.98
2022-12-19T09:22:44.930Z,1.84
2022-12-19T09:23:49.722Z,2.10
2022-12-19T09:24:52.361Z,1.90
2022-12-19T09:25:54.046Z,2.15
2022-12-19T09:26:56.706Z,2.34
2022-12-19T09:28:26.816Z,2.38
2022-12-19T09:29:22.470Z,2.69
2022-12-19T09:30:26.566Z,2.87
2022-12-19T09:31:30.049Z,2.82
2022-12-19T09:32:32.691Z,2.70
2022-12-19T09:33:42.956Z,2.47
2022-12-19T09:34:46.028Z,2.52
2022-12-19T09:35:50.056Z,2.74
2022-12-19T09:36:53.877Z,2.84
2022-12-19T09:38:00.035Z,2.17
2022-12-19T09:39:06.232Z,2.58
2022-12-19T09:40:16.789Z,2.26
2022-12-19T09:41:57.062Z,2.51
2022-12-19T09:43:12.149Z,2.61
2022-12-19T09:44:30.703Z,2.78
2022-12-19T09:45:41.764Z,2.88
2022-12-19T09:46:49.382Z,3.01
2022-12-19T09:47:57.963Z,3.01
2022-12-19T09:49:02.954Z,2.80
2022-12-19T09:50:22.411Z,2.86
2022-12-19T09:51:35.311Z,2.90
2022-12-19T09:52:41.034Z,2.67
2022-12-19T09:53:59.489Z,2.72
2022-12-19T09:55:05.736Z,2.89
2022-12-19T09:56:15.828Z,3.00
2022-12-19T09:57:24.139Z,2.98
2022-12-19T09:58:38.640Z,2.79
2022-12-19T09:59:49.683Z,2.72
2022-12-19T10:01:00.185Z,2.85
2022-12-19T10:02:15.899Z,3.07
2022-12-19T10:03:25.213Z,3.13
2022-12-19T10:04:30.878Z,3.25
2022-12-19T10:07:11.441Z,3.29
2022-12-19T10:07:22.103Z,3.51
2022-12-19T10:08:32.625Z,3.52
2022-12-19T10:11:08.251Z,3.60
2022-12-19T10:12:41.396Z,3.65
2022-12-19T10:12:51.147Z,3.68
2022-12-19T10:14:17.446Z,3.79
2022-12-19T10:15:27.014Z,3.66
2022-12-19T10:17:01.739Z,3.60
2022-12-19T10:18:22.058Z,4.00
2022-12-19T10:19:34.759Z,4.20
2022-12-19T10:20:42.429Z,4.31
2022-12-19T10:22:18.114Z,4.24
2022-12-19T10:23:36.502Z,4.29
2022-12-19T10:25:08.103Z,4.41
2022-12-19T10:26:19.423Z,4.07
2022-12-19T10:27:35.162Z,4.07
2022-12-19T10:28:53.177Z,4.00
2022-12-19T10:30:04.178Z,4.08
2022-12-19T10:31:21.573Z,3.63
2022-12-19T10:32:36.616Z,3.90
2022-12-19T10:33:45.975Z,4.02
2022-12-19T10:34:50.753Z,4.18
2022-12-19T10:36:02.081Z,4.25
2022-12-19T10:37:23.108Z,3.77
2022-12-19T10:38:38.359Z,4.11
2022-12-19T10:39:51.967Z,4.11
2022-12-19T10:41:07.469Z,4.36
2022-12-19T10:42:16.857Z,4.57
2022-12-19T10:43:33.532Z,4.73
2022-12-19T10:44:41.149Z,4.67
2022-12-19T10:45:47.072Z,4.73
2022-12-19T10:46:51.526Z,4.72
2022-12-19T10:47:59.147Z,4.71
2022-12-19T10:49:02.340Z,4.78
2022-12-19T10:50:09.677Z,4.80
2022-12-19T10:51:14.564Z,4.58
2022-12-19T10:52:53.405Z,4.11
2022-12-19T10:53:56.997Z,3.97
2022-12-19T10:54:59.787Z,4.23
2022-12-19T10:56:12.416Z,4.35
2022-12-19T10:57:25.567Z,4.38
2022-12-19T10:58:33.297Z,4.39
2022-12-19T10:59:35.871Z,4.48
2022-12-19T11:00:38.601Z,4.67
2022-12-19T11:01:41.635Z,4.64
2022-12-19T11:02:45.611Z,4.77
2022-12-19T11:03:52.720Z,4.88
2022-12-19T11:04:55.763Z,5.00
2022-12-19T11:06:02.572Z,5.11
2022-12-19T11:07:21.617Z,5.12
2022-12-19T11:08:27.289Z,4.72
2022-12-19T11:09:31.947Z,4.22
2022-12-19T11:13:57.337Z,4.07
2022-12-19T11:15:23.513Z,4.47
2022-12-19T11:19:01.819Z,4.61
2022-12-19T11:19:44.229Z,4.77
2022-12-19T11:24:38.743Z,4.53
2022-12-19T11:26:15.794Z,4.55
2022-12-19T11:29:19.609Z,4.69
2022-12-19T11:29:31.263Z,4.60
2022-12-19T11:29:38.940Z,4.74
2022-12-19T11:29:39.898Z,4.53
2022-12-19T11:30:35.302Z,4.59
2022-12-19T11:30:35.458Z,4.77
2022-12-19T11:30:43.753Z,4.68
2022-12-19T11:32:48.661Z,4.50
2022-12-19T11:33:54.655Z,4.47
2022-12-19T11:35:03.012Z,4.60
2022-12-19T11:36:07.111Z,4.58
2022-12-19T11:37:19.180Z,4.46
2022-12-19T11:38:33.632Z,4.48
2022-12-19T11:39:45.520Z,4.55
2022-12-19T11:40:51.540Z,4.41
2022-12-19T11:42:01.706Z,4.16
2022-12-19T11:44:37.272Z,4.53
2022-12-19T11:45:52.603Z,4.51
2022-12-19T11:47:00.603Z,4.42
2022-12-19T11:48:10.487Z,4.58
2022-12-19T11:49:26.618Z,4.62
2022-12-19T11:50:33.113Z,4.81
2022-12-19T11:51:40.056Z,5.01
2022-12-19T11:53:07.766Z,5.05
2022-12-19T11:54:18.896Z,4.60
2022-12-19T11:55:27.015Z,4.76
2022-12-19T11:56:30.296Z,4.78
2022-12-19T11:57:32.257Z,4.83
2022-12-19T11:58:36.076Z,4.94
2022-12-19T11:59:41.169Z,5.00
2022-12-19T12:00:51.711Z,5.16
2022-12-19T12:02:10.231Z,4.94
2022-12-19T12:03:38.180Z,5.09
2022-12-19T12:05:10.709Z,5.10
2022-12-19T12:06:17.236Z,5.09
2022-12-19T12:07:27.582Z,5.16
2022-12-19T12:12:21.610Z,5.07
2022-12-19T12:14:02.040Z,4.68
2022-12-19T12:18:47.839Z,4.80
2022-12-19T12:20:40.163Z,4.94
2022-12-19T12:25:07.011Z,5.05
2022-12-19T12:28:57.232Z,4.87
2022-12-19T12:29:03.259Z,4.99
2022-12-19T12:31:23.085Z,4.91
2022-12-19T12:31:23.332Z,4.80
2022-12-19T12:31:29.544Z,5.08
2022-12-19T12:31:40.355Z,4.48
2022-12-19T12:31:41.757Z,4.92
2022-12-19T12:32:02.267Z,4.92
2022-12-19T12:32:06.517Z,4.63
2022-12-19T12:35:05.927Z,4.41
2022-12-19T12:35:46.560Z,4.14
2022-12-19T12:35:51.348Z,4.00
2022-12-19T12:38:59.810Z,4.04
2022-12-19T12:40:22.988Z,3.98
2022-12-19T12:41:58.643Z,4.06
2022-12-19T12:43:13.978Z,4.11
2022-12-19T12:44:17.205Z,4.18
2022-12-19T12:45:32.309Z,4.07
2022-12-19T12:46:40.864Z,4.28
2022-12-19T12:47:47.439Z,4.21
2022-12-19T12:48:55.445Z,4.18
2022-12-19T12:50:02.225Z,4.33
2022-12-19T12:51:06.934Z,4.35
2022-12-19T12:52:17.110Z,4.29
2022-12-19T12:53:25.643Z,4.25
2022-12-19T12:54:37.781Z,4.40
2022-12-19T12:55:43.041Z,4.39
2022-12-19T12:56:48.532Z,4.39
2022-12-19T12:57:51.990Z,4.32
2022-12-19T12:59:21.641Z,4.46
2022-12-19T13:00:27.665Z,4.35
2022-12-19T13:01:35.665Z,4.11
2022-12-19T13:02:39.052Z,4.20
2022-12-19T13:03:43.559Z,4.16
2022-12-19T13:05:00.626Z,4.31
2022-12-19T13:06:07.987Z,4.43
2022-12-19T13:07:29.752Z,4.34
2022-12-19T13:08:35.671Z,4.51
2022-12-19T13:09:38.534Z,4.21
2022-12-19T13:10:53.956Z,4.11
2022-12-19T13:12:20.928Z,4.09
2022-12-19T13:13:54.758Z,4.13
2022-12-19T13:15:20.253Z,4.07
2022-12-19T13:16:49.749Z,4.01
2022-12-19T13:18:09.373Z,4.21
2022-12-19T13:19:21.002Z,4.25
2022-12-19T13:20:48.629Z,4.18
2022-12-19T13:22:19.811Z,4.27
2022-12-19T13:23:23.958Z,4.21
2022-12-19T13:24:26.693Z,4.21
2022-12-19T13:25:52.026Z,4.36
2022-12-19T13:26:54.670Z,4.39
2022-12-19T13:27:59.117Z,4.33
2022-12-19T13:29:27.103Z,4.43
2022-12-19T13:30:50.092Z,4.49
2022-12-19T13:32:13.453Z,4.49
2022-12-19T13:33:16.885Z,4.38
2022-12-19T13:34:20.258Z,4.35
2022-12-19T13:39:35.869Z,4.48
2022-12-19T13:40:01.314Z,4.35
2022-12-19T13:40:01.588Z,4.59
2022-12-19T13:40:32.683Z,4.47
2022-12-19T13:42:01.292Z,4.51
2022-12-19T13:43:33.166Z,4.51
2022-12-19T13:44:40.857Z,4.76
2022-12-19T13:45:50.757Z,5.00
2022-12-19T13:46:56.111Z,4.97
2022-12-19T13:48:02.125Z,4.90
2022-12-19T13:49:09.190Z,4.91
2022-12-19T13:50:24.688Z,5.09
2022-12-19T13:51:41.211Z,5.15
2022-12-19T13:52:49.407Z,5.12
2022-12-19T13:53:59.351Z,5.12
2022-12-19T13:55:02.742Z,5.15
2022-12-19T13:56:12.498Z,5.21
2022-12-19T13:57:22.462Z,5.29
2022-12-19T13:58:30.623Z,5.23
2022-12-19T13:59:38.871Z,5.23
2022-12-19T14:00:51.939Z,5.41
2022-12-19T14:01:57.160Z,5.43
2022-12-19T14:02:59.505Z,5.24
2022-12-19T14:04:07.991Z,5.32
2022-12-19T14:05:34.162Z,5.29
2022-12-19T14:06:47.173Z,5.30
2022-12-19T14:07:50.068Z,4.89
2022-12-19T14:09:37.323Z,5.05
2022-12-19T14:11:34.574Z,4.86
2022-12-19T14:13:42.558Z,5.14
2022-12-19T14:13:51.007Z,5.05
2022-12-19T14:15:14.087Z,5.16
2022-12-19T14:16:19.768Z,5.07
2022-12-19T14:17:23.734Z,5.03
2022-12-19T14:18:44.629Z,5.08
2022-12-19T14:19:51.451Z,4.99
2022-12-19T14:22:10.785Z,4.99
2022-12-19T14:22:38.225Z,5.10
2022-12-19T14:23:44.164Z,5.30
2022-12-19T14:24:55.089Z,4.99
2022-12-19T14:28:24.150Z,4.94
2022-12-19T14:28:26.982Z,4.83
2022-12-19T14:29:32.039Z,4.73
2022-12-19T14:30:50.380Z,4.80
2022-12-19T14:32:23.991Z,4.80
2022-12-19T14:33:46.019Z,4.92
2022-12-19T14:36:04.843Z,4.90
2022-12-19T14:36:15.968Z,4.65
2022-12-19T14:37:37.154Z,4.62
2022-12-19T14:39:22.476Z,4.58
2022-12-19T14:40:25.567Z,4.70
2022-12-19T14:42:00.974Z,4.64
2022-12-19T14:43:57.894Z,4.70
2022-12-19T14:52:08.675Z,4.69
2022-12-19T14:54:00.624Z,4.72
2022-12-19T14:54:03.654Z,4.63
2022-12-19T14:54:04.129Z,4.70
2022-12-19T14:54:21.095Z,4.63
2022-12-19T14:54:41.911Z,4.75
2022-12-19T14:56:12.351Z,4.62
2022-12-19T14:57:06.116Z,4.54
2022-12-19T14:58:56.294Z,4.53
2022-12-19T14:59:35.310Z,4.57
2022-12-19T15:01:09.001Z,4.31
2022-12-19T15:02:30.625Z,4.37
2022-12-19T15:03:52.473Z,4.62
2022-12-19T15:05:16.836Z,4.83
2022-12-19T15:07:05.954Z,4.78
2022-12-19T15:07:49.849Z,4.87
2022-12-19T15:10:58.250Z,4.91
2022-12-19T15:11:09.163Z,4.93
2022-12-19T15:14:46.784Z,5.09
2022-12-19T15:14:54.060Z,4.86
2022-12-19T15:15:05.164Z,5.08
2022-12-19T15:16:23.945Z,5.08
2022-12-19T15:17:29.205Z,4.89
2022-12-19T15:18:40.586Z,5.03
2022-12-19T15:19:42.405Z,4.98
2022-12-19T15:20:44.988Z,5.12
2022-12-19T15:21:47.624Z,5.33
2022-12-19T15:22:49.351Z,5.46
2022-12-19T15:23:54.867Z,5.39
2022-12-19T15:24:56.654Z,5.32